San Francisco, CA

11:58 PM PDT on October 23, 2014 (GMT -0700)
San Francisco International | Change Station
CLOSE
Current Station
Airport
Location: San Francisco,
Elevation: 16 ft
Nearby Weather Stations

Elev 16 ft 37.62 °N, 122.37 °W | Updated 1 hour ago

Clear
Clear
64 °F
Feels Like 64 °F
N
4
Wind Variable Wind from West

Today
High -- | Low -- °F
--% Chance of Precip.
Yesterday
High -- | Low -- °F
Precip. -- in
7:25 AM 6:21 PM
New Moon, 0% visible
Pressure 29.98 in
Visibility 10.0 miles
Clouds Clear
Dew Point 61 °F
Humidity 90%
Rainfall 0.00 in
Snow Depth Not available.
UV 0 out of 12
Pollen 1.70 out of 12
Ozone Good
PM2.5 Good
Flu Activity Sporadic
METAR KSFO 240556Z 26003KT 10SM CLR 18/16 A2998 RMK AO2 SLP151 T01780161 10222 20178 52004 $

More Conditions Fewer Conditions

Pressure 29.98 in
Visibility 10.0 miles
Clouds Clear
Dew Point 61 °F
Humidity 90%
Rainfall 0.00 in
Snow Depth Not available.
UV 0 out of 12
Pollen 1.70 out of 12
Ozone Good
PM2.5 Good
Flu Activity Sporadic
METAR KSFO 240556Z 26003KT 10SM CLR 18/16 A2998 RMK AO2 SLP151 T01780161 10222 20178 52004 $

More Conditions Fewer Conditions

10-Day Weather Forecast

Almanac

Astronomy

Oct. 23, 2014 Rise Set
Actual Time 7:25 AM PDT 6:21 PM PDT
Civil Twilight 6:58 AM PDT 6:48 PM PDT
Nautical Twilight 6:28 AM PDT 7:18 PM PDT
Astronomical Twilight 5:57 AM PDT 7:49 PM PDT
Moon 7:10 AM PDT (10/23) 6:26 PM PDT (10/23)
Length of Visible Light 11h 49m
Length of Day
10h 55m
Tomorrow will be 2m 14s shorter.
New Moon, 0% of the Moon is Illuminated
Oct 24
New Moon
Oct 30
First Quarter
Nov 6
Full
Nov 14
Last Quarter
Nov 22
New

Community

WunderPhotos

Upload Photos

1,764,513 photos uploaded!

WunderBlogs® & News

Nearby

Air Quality

  Air Quality AQ Index Pollutant
Yesterday Good
OZONE
Yesterday Good
PM2.5
Current Good
OZONE
Current Good
PM2.5
Thursday Good
OZONE
Friday Good
OZONE
Saturday Good
OZONE
Sunday Good
OZONE
Monday Good
PM2.5
Tuesday Good
PM2.5

Snow Depth

Station Depth Elevation
Blue Lakes 0 in 8000 ft
Forestdale Creek 0 in 8029 ft
Echo Peak 2 in 7800 ft
Ebbetts Pass 0 in 8700 ft
Rubicon #2 1 in 7500 ft

Earthquake Activity

City Distance Mag. Time & Date
No recent earthquake activity has been reported nearby.
Minimum magnitude displayed is 2.5.

Coastal Water Temperatures

Place Temperature
No Stations Reporting

Nearby Weather Stations